Time;durP1;ratioP1;P1;durP2;ratioP2;P2;SDS_P1;SDS_P2;PMS_P1;PMS_P2;Temp;Humidity;BMP_temperature;BMP_pressure;BME280_temperature;BME280_humidity;BME280_pressure;Samples;Min_cycle;Max_cycle;Signal;HPM_P1;HPM_P2
2022/05/05 00:00:06;;;;;;;;;;;;;;;;;;6231264;22;19981;-57
2022/05/05 00:02:32;;;;;;;;;;;;;;;;;;6231554;22;19936;-57
2022/05/05 00:04:57;;;;;;;;;;;;;;;;;;6231384;22;19971;-58
2022/05/05 00:07:23;;;;;;;;;;;;;;;;;;6228822;22;20156;-57
2022/05/05 00:09:48;;;;;;;;;;;;;;;;;;6139954;23;19958;-57
2022/05/05 00:15:04;;;;;;;;;;;;;;;;;;6137975;23;19988;-57
2022/05/05 00:17:31;;;;;;;;;;;;;;;;;;6129469;23;20319;-57
2022/05/05 00:19:59;;;;;;;;;;;;;;;;;;6128574;23;20610;-58
2022/05/05 00:22:25;;;;;;;;;;;;;;;;;;6139136;23;20013;-57
2022/05/05 00:24:53;;;;;;;;;;;;;;;;;;6233516;22;20456;-57
2022/05/05 00:27:23;;;;;;;;;;;;;;;;;;6231599;22;19917;-57
2022/05/05 00:29:49;;;;;;;;;;;;;;;;;;6139294;23;19948;-57
2022/05/05 00:32:15;;;;;;;;;;;;;;;;;;6139055;23;19915;-57
2022/05/05 00:34:40;;;;;;;;;;;;;;;;;;6229505;22;20139;-57
2022/05/05 00:37:06;;;;;;;;;;;;;;;;;;6138300;23;19966;-57
2022/05/05 00:39:33;;;;;;;;;;;;;;;;;;6229600;22;20301;-57
2022/05/05 00:41:58;;;;;;;;;;;;;;;;;;6139994;23;19914;-57
2022/05/05 00:44:24;;;;;;;;;;;;;;;;;;6205616;23;19923;-57
2022/05/05 00:46:49;;;;;;;;;;;;;;;;;;6204833;23;19916;-57
2022/05/05 00:49:16;;;;;;;;;;;;;;;;;;6204835;22;20335;-57
2022/05/05 00:51:45;;;;;;;;;;;;;;;;;;6231278;22;19908;-57
2022/05/05 00:54:10;;;;;;;;;;;;;;;;;;6139406;23;19912;-57
2022/05/05 00:56:38;;;;;;;;;;;;;;;;;;6139535;23;19921;-57
2022/05/05 00:59:03;;;;;;;;;;;;;;;;;;6202801;23;19908;-58
2022/05/05 01:01:28;;;;;;;;;;;;;;;;;;6230799;22;19923;-58
2022/05/05 01:03:53;;;;;;;;;;;;;;;;;;6137595;23;20489;-58
2022/05/05 01:06:21;;;;;;;;;;;;;;;;;;6130168;23;19916;-58
2022/05/05 01:08:47;;;;;;;;;;;;;;;;;;6126711;23;20680;-56
2022/05/05 01:11:13;;;;;;;;;;;;;;;;;;6138691;23;19917;-57
2022/05/05 01:13:41;;;;;;;;;;;;;;;;;;6138000;23;19908;-56
2022/05/05 01:16:06;;;;;;;;;;;;;;;;;;6137853;23;19966;-57
2022/05/05 01:18:32;;;;;;;;;;;;;;;;;;6231048;22;20332;-56
2022/05/05 01:20:59;;;;;;;;;;;;;;;;;;6138529;23;19985;-56
2022/05/05 01:23:24;;;;;;;;;;;;;;;;;;6229689;22;19924;-56
2022/05/05 01:28:34;;;;;;;;;;;;;;;;;;6137852;23;19952;-58
2022/05/05 01:30:59;;;;;;;;;;;;;;;;;;6137227;23;19951;-57
2022/05/05 01:33:26;;;;;;;;;;;;;;;;;;6137708;23;20326;-57
2022/05/05 01:35:53;;;;;;;;;;;;;;;;;;6129492;23;19936;-56
2022/05/05 01:38:25;;;;;;;;;;;;;;;;;;6140078;23;19945;-57
2022/05/05 01:40:53;;;;;;;;;;;;;;;;;;6139175;23;19912;-57
2022/05/05 01:43:21;;;;;;;;;;;;;;;;;;6127217;23;19908;-57
2022/05/05 01:45:46;;;;;;;;;;;;;;;;;;6204970;23;19920;-56
2022/05/05 01:48:12;;;;;;;;;;;;;;;;;;6228575;22;19974;-58
2022/05/05 01:50:37;;;;;;;;;;;;;;;;;;6204697;23;19966;-57
2022/05/05 01:53:02;;;;;;;;;;;;;;;;;;6205069;23;19912;-57
2022/05/05 01:55:30;;;;;;;;;;;;;;;;;;6238266;22;19917;-57
2022/05/05 01:57:55;;;;;;;;;;;;;;;;;;6139896;23;19938;-57
2022/05/05 02:00:21;;;;;;;;;;;;;;;;;;6242187;22;19916;-57
2022/05/05 02:02:48;;;;;;;;;;;;;;;;;;6231156;22;20503;-57
2022/05/05 02:05:14;;;;;;;;;;;;;;;;;;6208311;23;20023;-57
2022/05/05 02:07:39;;;;;;;;;;;;;;;;;;6206976;23;19913;-57
2022/05/05 02:10:04;;;;;;;;;;;;;;;;;;6240502;22;19958;-57
2022/05/05 02:12:32;;;;;;;;;;;;;;;;;;6230715;22;20321;-57
2022/05/05 02:14:58;;;;;;;;;;;;;;;;;;6232859;22;19912;-57
2022/05/05 02:17:26;;;;;;;;;;;;;;;;;;6232417;22;20253;-58
2022/05/05 02:20:00;;;;;;;;;;;;;;;;;;6138541;23;19912;-57
2022/05/05 02:22:26;;;;;;;;;;;;;;;;;;6243675;22;19923;-57
2022/05/05 02:24:51;;;;;;;;;;;;;;;;;;6138593;23;19913;-58
2022/05/05 02:27:18;;;;;;;;;;;;;;;;;;6230833;22;20314;-58
2022/05/05 02:29:46;;;;;;;;;;;;;;;;;;6232303;22;19971;-57
2022/05/05 02:32:14;;;;;;;;;;;;;;;;;;6137548;23;20583;-58
2022/05/05 02:34:39;;;;;;;;;;;;;;;;;;6231970;22;20268;-58
2022/05/05 02:39:48;;;;;;;;;;;;;;;;;;6140698;23;20597;-58
2022/05/05 02:42:14;;;;;;;;;;;;;;;;;;6139504;23;19912;-56
2022/05/05 02:44:39;;;;;;;;;;;;;;;;;;6231175;22;20003;-58
2022/05/05 02:47:04;;;;;;;;;;;;;;;;;;6231980;22;20287;-58
2022/05/05 02:49:29;;;;;;;;;;;;;;;;;;6130003;22;20347;-58
2022/05/05 02:51:55;;;;;;;;;;;;;;;;;;6231698;22;20624;-58
2022/05/05 02:57:06;;;;;;;;;;;;;;;;;;6138833;23;20284;-57
2022/05/05 02:59:32;;;;;;;;;;;;;;;;;;6140116;23;19931;-57
2022/05/05 03:01:57;;;;;;;;;;;;;;;;;;6137119;23;20334;-57
2022/05/05 03:04:25;;;;;;;;;;;;;;;;;;6138585;23;20210;-57
2022/05/05 03:06:52;;;;;;;;;;;;;;;;;;6139933;23;19999;-57
2022/05/05 03:09:18;;;;;;;;;;;;;;;;;;6232926;22;20276;-57
2022/05/05 03:11:46;;;;;;;;;;;;;;;;;;6204371;23;19942;-57
2022/05/05 03:14:13;;;;;;;;;;;;;;;;;;6140144;23;19912;-57
2022/05/05 03:16:39;;;;;;;;;;;;;;;;;;6137890;23;19969;-57
2022/05/05 03:19:09;;;;;;;;;;;;;;;;;;6204889;22;19923;-57
2022/05/05 03:21:35;;;;;;;;;;;;;;;;;;6204941;23;19921;-57
2022/05/05 03:24:00;;;;;;;;;;;;;;;;;;6138879;23;19920;-57
2022/05/05 03:26:25;;;;;;;;;;;;;;;;;;6138733;22;19921;-57
2022/05/05 03:28:50;;;;;;;;;;;;;;;;;;6240141;22;19959;-58
2022/05/05 03:31:18;;;;;;;;;;;;;;;;;;6231777;22;19985;-57
2022/05/05 03:33:48;;;;;;;;;;;;;;;;;;6238116;22;19912;-57
2022/05/05 03:36:16;;;;;;;;;;;;;;;;;;6239520;22;19916;-57
2022/05/05 03:38:41;;;;;;;;;;;;;;;;;;6137870;23;19915;-58
2022/05/05 03:41:09;;;;;;;;;;;;;;;;;;6138428;23;19913;-57
2022/05/05 03:43:34;;;;;;;;;;;;;;;;;;6128245;23;20248;-57
2022/05/05 03:46:00;;;;;;;;;;;;;;;;;;6229425;22;20531;-57
2022/05/05 03:48:28;;;;;;;;;;;;;;;;;;6138663;23;19908;-58
2022/05/05 03:50:53;;;;;;;;;;;;;;;;;;6240440;22;20274;-57
2022/05/05 03:53:18;;;;;;;;;;;;;;;;;;6232446;22;20011;-57
2022/05/05 03:55:44;;;;;;;;;;;;;;;;;;6138979;23;19927;-56
2022/05/05 03:58:15;;;;;;;;;;;;;;;;;;6205902;22;19913;-56
2022/05/05 04:00:40;;;;;;;;;;;;;;;;;;6139140;23;19974;-58
2022/05/05 04:05:54;;;;;;;;;;;;;;;;;;6229966;22;19913;-57
2022/05/05 04:08:22;;;;;;;;;;;;;;;;;;6232896;22;19923;-57
2022/05/05 04:10:47;;;;;;;;;;;;;;;;;;6139602;23;19920;-57
2022/05/05 04:13:15;;;;;;;;;;;;;;;;;;6229459;22;20331;-57
2022/05/05 04:15:59;;;;;;;;;;;;;;;;;;6230368;22;19913;-57
2022/05/05 04:18:26;;;;;;;;;;;;;;;;;;6205897;22;19917;-57
2022/05/05 04:20:54;;;;;;;;;;;;;;;;;;6230041;22;19912;-57
2022/05/05 04:23:19;;;;;;;;;;;;;;;;;;6230504;22;19919;-57
2022/05/05 04:25:47;;;;;;;;;;;;;;;;;;6204160;22;19942;-57
2022/05/05 04:28:12;;;;;;;;;;;;;;;;;;6241552;22;20445;-57
2022/05/05 04:30:40;;;;;;;;;;;;;;;;;;6129192;23;19921;-57
2022/05/05 04:33:10;;;;;;;;;;;;;;;;;;6136462;23;20038;-57
2022/05/05 04:35:35;;;;;;;;;;;;;;;;;;6231400;22;19917;-57
2022/05/05 04:38:03;;;;;;;;;;;;;;;;;;6138527;23;20439;-58
2022/05/05 04:40:29;;;;;;;;;;;;;;;;;;6129663;23;19974;-57
2022/05/05 04:42:54;;;;;;;;;;;;;;;;;;6128917;23;19912;-57
2022/05/05 04:45:22;;;;;;;;;;;;;;;;;;6230702;22;19920;-57
2022/05/05 04:47:51;;;;;;;;;;;;;;;;;;6231141;22;20443;-58
2022/05/05 04:53:32;;;;;;;;;;;;;;;;;;6141204;23;19920;-55
2022/05/05 04:56:01;;;;;;;;;;;;;;;;;;6140010;23;19920;-56
2022/05/05 04:58:31;;;;;;;;;;;;;;;;;;6138538;23;20550;-57
2022/05/05 05:00:59;;;;;;;;;;;;;;;;;;6230928;22;19995;-58
2022/05/05 05:03:32;;;;;;;;;;;;;;;;;;6138272;23;19913;-57
2022/05/05 05:09:16;;;;;;;;;;;;;;;;;;6136999;23;20249;-58
2022/05/05 05:11:47;;;;;;;;;;;;;;;;;;6230445;22;19920;-57
2022/05/05 05:14:12;;;;;;;;;;;;;;;;;;6140546;23;19912;-57
2022/05/05 05:16:42;;;;;;;;;;;;;;;;;;6233732;22;19912;-57
2022/05/05 05:19:07;;;;;;;;;;;;;;;;;;6140165;23;19912;-58
2022/05/05 05:21:33;;;;;;;;;;;;;;;;;;6231430;22;19990;-57
2022/05/05 05:23:59;;;;;;;;;;;;;;;;;;6206919;23;19913;-57
2022/05/05 05:26:24;;;;;;;;;;;;;;;;;;6252122;22;19915;-56
2022/05/05 05:28:52;;;;;;;;;;;;;;;;;;6263672;22;19922;-57
2022/05/05 05:31:21;;;;;;;;;;;;;;;;;;6264302;22;19915;-57
2022/05/05 05:33:47;;;;;;;;;;;;;;;;;;6254394;22;20391;-57
2022/05/05 05:36:14;;;;;;;;;;;;;;;;;;6251698;22;19911;-57
2022/05/05 05:38:39;;;;;;;;;;;;;;;;;;6264470;22;20741;-57
2022/05/05 05:41:08;;;;;;;;;;;;;;;;;;6266984;22;20327;-57
2022/05/05 05:43:36;;;;;;;;;;;;;;;;;;6256396;22;20350;-57
2022/05/05 05:46:02;;;;;;;;;;;;;;;;;;6253614;22;19918;-57
2022/05/05 05:48:30;;;;;;;;;;;;;;;;;;6267451;22;19913;-57
2022/05/05 05:50:56;;;;;;;;;;;;;;;;;;6255843;22;19915;-58
2022/05/05 05:53:24;;;;;;;;;;;;;;;;;;6228278;22;19907;-58
2022/05/05 05:55:49;;;;;;;;;;;;;;;;;;6229412;22;19949;-57
2022/05/05 05:58:15;;;;;;;;;;;;;;;;;;6266546;22;19974;-57
2022/05/05 06:00:40;;;;;;;;;;;;;;;;;;6268743;22;20341;-57
2022/05/05 06:05:50;;;;;;;;;;;;;;;;;;6262564;22;20017;-57
2022/05/05 06:08:15;;;;;;;;;;;;;;;;;;6264361;22;19978;-57
2022/05/05 06:10:41;;;;;;;;;;;;;;;;;;6252829;22;19923;-57
2022/05/05 06:13:06;;;;;;;;;;;;;;;;;;6230444;22;20030;-57
2022/05/05 06:15:32;;;;;;;;;;;;;;;;;;6258980;22;20408;-57
2022/05/05 06:18:00;;;;;;;;;;;;;;;;;;6255909;22;19907;-57
2022/05/05 06:23:22;;;;;;;;;;;;;;;;;;6255549;22;19951;-57
2022/05/05 06:25:50;;;;;;;;;;;;;;;;;;6255764;22;19939;-57
2022/05/05 06:28:16;;;;;;;;;;;;;;;;;;6145631;22;19956;-57
2022/05/05 06:30:41;;;;;;;;;;;;;;;;;;6236445;22;20241;-57
2022/05/05 06:33:07;;;;;;;;;;;;;;;;;;6143143;23;19962;-57
2022/05/05 06:35:32;;;;;;;;;;;;;;;;;;6142925;23;19920;-57
2022/05/05 06:37:58;;;;;;;;;;;;;;;;;;6143062;23;19927;-58
2022/05/05 06:40:24;;;;;;;;;;;;;;;;;;6210565;23;19920;-57
2022/05/05 06:42:50;;;;;;;;;;;;;;;;;;6209306;23;20125;-57
2022/05/05 06:45:19;;;;;;;;;;;;;;;;;;6143235;23;20377;-58
2022/05/05 06:51:01;;;;;;;;;;;;;;;;;;6142186;23;20249;-59
2022/05/05 06:53:26;;;;;;;;;;;;;;;;;;6132642;22;19913;-59
2022/05/05 06:55:55;;;;;;;;;;;;;;;;;;6246714;22;19909;-59
2022/05/05 06:58:20;;;;;;;;;;;;;;;;;;6132665;23;19913;-60
2022/05/05 07:03:33;;;;;;;;;;;;;;;;;;6234649;22;20333;-59
2022/05/05 07:05:59;;;;;;;;;;;;;;;;;;6133125;23;20288;-59
2022/05/05 07:08:27;;;;;;;;;;;;;;;;;;6132719;23;19924;-59
2022/05/05 07:10:52;;;;;;;;;;;;;;;;;;6236778;22;19985;-58
2022/05/05 07:16:08;;;;;;;;;;;;;;;;;;6236391;22;19923;-58
2022/05/05 07:18:35;;;;;;;;;;;;;;;;;;6209361;23;19908;-58
2022/05/05 07:21:01;;;;;;;;;;;;;;;;;;6210867;23;20222;-59
2022/05/05 07:23:29;;;;;;;;;;;;;;;;;;6132454;23;19908;-59
2022/05/05 07:25:54;;;;;;;;;;;;;;;;;;6245919;22;19923;-58
2022/05/05 07:28:22;;;;;;;;;;;;;;;;;;6234816;22;19952;-58
2022/05/05 07:30:51;;;;;;;;;;;;;;;;;;6243354;22;19913;-60
2022/05/05 07:33:17;;;;;;;;;;;;;;;;;;6141132;23;19912;-59
2022/05/05 07:35:42;;;;;;;;;;;;;;;;;;6234825;22;20075;-59
2022/05/05 07:38:10;;;;;;;;;;;;;;;;;;6142053;23;19912;-59
2022/05/05 07:40:35;;;;;;;;;;;;;;;;;;6143531;23;19923;-59
2022/05/05 07:43:01;;;;;;;;;;;;;;;;;;6233113;22;19912;-58
2022/05/05 07:45:26;;;;;;;;;;;;;;;;;;6132633;23;19995;-59
2022/05/05 07:47:52;;;;;;;;;;;;;;;;;;6234428;22;19915;-59
2022/05/05 07:50:19;;;;;;;;;;;;;;;;;;6242422;22;19912;-59
2022/05/05 07:52:45;;;;;;;;;;;;;;;;;;6142927;23;19985;-58
2022/05/05 07:55:10;;;;;;;;;;;;;;;;;;6140346;23;19936;-58
2022/05/05 07:57:38;;;;;;;;;;;;;;;;;;6236104;22;20482;-58
2022/05/05 08:00:03;;;;;;;;;;;;;;;;;;6141806;23;19921;-58
2022/05/05 08:02:32;;;;;;;;;;;;;;;;;;6141673;23;19941;-58
2022/05/05 08:04:57;;;;;;;;;;;;;;;;;;6234566;22;20190;-59
2022/05/05 08:10:42;;;;;;;;;;;;;;;;;;6143310;23;19986;-59
2022/05/05 08:13:10;;;;;;;;;;;;;;;;;;6142451;23;19913;-59
2022/05/05 08:15:35;;;;;;;;;;;;;;;;;;6246530;22;19913;-59
2022/05/05 08:18:01;;;;;;;;;;;;;;;;;;6132842;23;20646;-59
2022/05/05 08:20:36;;;;;;;;;;;;;;;;;;6234983;22;19908;-60
2022/05/05 08:23:01;;;;;;;;;;;;;;;;;;6209674;23;19956;-59
2022/05/05 08:28:31;;;;;;;;;;;;;;;;;;6154639;22;19982;-59
2022/05/05 08:30:59;;;;;;;;;;;;;;;;;;6142206;23;20301;-59
2022/05/05 08:33:27;;;;;;;;;;;;;;;;;;6233786;22;19940;-59
2022/05/05 08:35:52;;;;;;;;;;;;;;;;;;6245636;22;20839;-58
2022/05/05 08:38:18;;;;;;;;;;;;;;;;;;6142118;23;19932;-59
2022/05/05 08:40:43;;;;;;;;;;;;;;;;;;6246025;22;20292;-58
2022/05/05 08:43:08;;;;;;;;;;;;;;;;;;6235420;22;19913;-59
2022/05/05 08:45:34;;;;;;;;;;;;;;;;;;6235266;22;20000;-59
2022/05/05 08:48:02;;;;;;;;;;;;;;;;;;6142366;23;19916;-59
2022/05/05 08:50:32;;;;;;;;;;;;;;;;;;6142658;23;19992;-59
2022/05/05 08:52:58;;;;;;;;;;;;;;;;;;6209710;23;19913;-59
2022/05/05 08:55:26;;;;;;;;;;;;;;;;;;6231602;22;19908;-59
2022/05/05 08:57:53;;;;;;;;;;;;;;;;;;6235149;22;20531;-59
2022/05/05 09:00:21;;;;;;;;;;;;;;;;;;6242560;22;19939;-59
2022/05/05 09:02:47;;;;;;;;;;;;;;;;;;6141339;23;20043;-60
2022/05/05 09:05:14;;;;;;;;;;;;;;;;;;6242562;22;19909;-60
2022/05/05 09:07:42;;;;;;;;;;;;;;;;;;6234640;22;20637;-60
2022/05/05 09:10:07;;;;;;;;;;;;;;;;;;6211168;23;19916;-60
2022/05/05 09:12:35;;;;;;;;;;;;;;;;;;6143219;23;19916;-60
2022/05/05 09:15:00;;;;;;;;;;;;;;;;;;6244287;22;19916;-59
2022/05/05 09:17:26;;;;;;;;;;;;;;;;;;6142525;23;19912;-60
2022/05/05 09:19:53;;;;;;;;;;;;;;;;;;6234082;22;20366;-60
2022/05/05 09:22:21;;;;;;;;;;;;;;;;;;6233549;22;19917;-60
2022/05/05 09:24:49;;;;;;;;;;;;;;;;;;6245628;22;19919;-59
2022/05/05 09:27:15;;;;;;;;;;;;;;;;;;6131956;22;20643;-60
2022/05/05 09:29:41;;;;;;;;;;;;;;;;;;6234190;22;19913;-60
2022/05/05 09:32:08;;;;;;;;;;;;;;;;;;6231993;22;20283;-60
2022/05/05 09:34:33;;;;;;;;;;;;;;;;;;6208205;23;19917;-60
2022/05/05 09:36:59;;;;;;;;;;;;;;;;;;6140204;23;19915;-60
2022/05/05 09:39:26;;;;;;;;;;;;;;;;;;6140469;23;19917;-60
2022/05/05 09:41:54;;;;;;;;;;;;;;;;;;6208876;23;19912;-60
2022/05/05 09:44:21;;;;;;;;;;;;;;;;;;6140184;23;19977;-60
2022/05/05 09:46:49;;;;;;;;;;;;;;;;;;6234083;22;19955;-60
2022/05/05 09:49:16;;;;;;;;;;;;;;;;;;6242314;22;19912;-60
2022/05/05 09:51:44;;;;;;;;;;;;;;;;;;6234382;22;19909;-61
2022/05/05 09:59:40;;;;;;;;;;;;;;;;;;6141200;23;20331;-58
2022/05/05 10:02:10;;;;;;;;;;;;;;;;;;6141353;23;19908;-59
2022/05/05 10:04:36;;;;;;;;;;;;;;;;;;6141172;23;19945;-60
2022/05/05 10:07:01;;;;;;;;;;;;;;;;;;6141119;23;19955;-60
2022/05/05 10:09:27;;;;;;;;;;;;;;;;;;6141327;23;19909;-61
2022/05/05 10:11:54;;;;;;;;;;;;;;;;;;6235231;22;19908;-59
2022/05/05 10:14:20;;;;;;;;;;;;;;;;;;6132289;22;19939;-60
2022/05/05 10:16:45;;;;;;;;;;;;;;;;;;6233622;22;19909;-60
2022/05/05 10:19:11;;;;;;;;;;;;;;;;;;6235204;22;19965;-59
2022/05/05 10:21:36;;;;;;;;;;;;;;;;;;6234808;22;20015;-60
2022/05/05 10:24:05;;;;;;;;;;;;;;;;;;6235812;22;19919;-60
2022/05/05 10:26:30;;;;;;;;;;;;;;;;;;6143539;22;19970;-60
2022/05/05 10:28:55;;;;;;;;;;;;;;;;;;6210324;22;19916;-61
2022/05/05 10:31:20;;;;;;;;;;;;;;;;;;6142507;23;19909;-60
2022/05/05 10:33:51;;;;;;;;;;;;;;;;;;6234737;22;19917;-60
2022/05/05 10:36:18;;;;;;;;;;;;;;;;;;6141997;23;19912;-60
2022/05/05 10:38:43;;;;;;;;;;;;;;;;;;6141570;23;20000;-60
2022/05/05 10:41:09;;;;;;;;;;;;;;;;;;6244394;22;19991;-61
2022/05/05 10:43:35;;;;;;;;;;;;;;;;;;6210829;23;19999;-61
2022/05/05 10:46:04;;;;;;;;;;;;;;;;;;6142669;23;19914;-61
2022/05/05 10:48:30;;;;;;;;;;;;;;;;;;6246043;22;20388;-60
2022/05/05 10:50:57;;;;;;;;;;;;;;;;;;6246131;22;19924;-60
2022/05/05 10:53:23;;;;;;;;;;;;;;;;;;6244773;22;19917;-61
2022/05/05 10:55:49;;;;;;;;;;;;;;;;;;6141733;23;19989;-61
2022/05/05 10:58:14;;;;;;;;;;;;;;;;;;6234942;22;20212;-61
2022/05/05 11:00:40;;;;;;;;;;;;;;;;;;6132999;23;19918;-61
2022/05/05 11:03:11;;;;;;;;;;;;;;;;;;6210920;22;19912;-60
2022/05/05 11:05:36;;;;;;;;;;;;;;;;;;6133202;23;19932;-61
2022/05/05 11:08:04;;;;;;;;;;;;;;;;;;6236123;22;20285;-61
2022/05/05 11:10:29;;;;;;;;;;;;;;;;;;6143338;23;19920;-61
2022/05/05 11:12:55;;;;;;;;;;;;;;;;;;6132955;23;19920;-60
2022/05/05 11:23:35;;;;;;;;;;;;;;;;;;6142924;23;19986;-61
2022/05/05 11:26:00;;;;;;;;;;;;;;;;;;6143582;23;19905;-61
2022/05/05 11:28:25;;;;;;;;;;;;;;;;;;6245523;22;19920;-61
2022/05/05 11:30:50;;;;;;;;;;;;;;;;;;6246631;22;20209;-60
2022/05/05 11:33:16;;;;;;;;;;;;;;;;;;6143502;23;20670;-61
2022/05/05 11:35:41;;;;;;;;;;;;;;;;;;6142909;23;19909;-60
2022/05/05 11:38:07;;;;;;;;;;;;;;;;;;6142965;23;20324;-60
2022/05/05 11:40:32;;;;;;;;;;;;;;;;;;6236181;22;20282;-61
2022/05/05 11:45:42;;;;;;;;;;;;;;;;;;6142596;23;20313;-61
2022/05/05 11:48:07;;;;;;;;;;;;;;;;;;6131297;23;19928;-60
2022/05/05 11:50:35;;;;;;;;;;;;;;;;;;6142809;23;20442;-61
2022/05/05 11:53:03;;;;;;;;;;;;;;;;;;6234467;22;20155;-61
2022/05/05 11:55:30;;;;;;;;;;;;;;;;;;6142163;23;20213;-61
2022/05/05 11:57:55;;;;;;;;;;;;;;;;;;6245440;22;19961;-62
2022/05/05 12:03:11;;;;;;;;;;;;;;;;;;6142230;23;20530;-61
2022/05/05 12:05:39;;;;;;;;;;;;;;;;;;6234599;22;19913;-61
2022/05/05 12:08:04;;;;;;;;;;;;;;;;;;6141031;23;19909;-60
2022/05/05 12:10:29;;;;;;;;;;;;;;;;;;6235096;22;20075;-61
2022/05/05 12:12:59;;;;;;;;;;;;;;;;;;6234556;22;19912;-61
2022/05/05 12:15:30;;;;;;;;;;;;;;;;;;6235488;22;19917;-61
2022/05/05 12:17:58;;;;;;;;;;;;;;;;;;6140033;23;19921;-61
2022/05/05 12:20:26;;;;;;;;;;;;;;;;;;6141734;23;20393;-61
2022/05/05 12:22:51;;;;;;;;;;;;;;;;;;6140711;23;19913;-61
2022/05/05 12:25:17;;;;;;;;;;;;;;;;;;6131715;23;19945;-61
2022/05/05 12:30:35;;;;;;;;;;;;;;;;;;6232891;22;19920;-61
2022/05/05 12:33:03;;;;;;;;;;;;;;;;;;6140929;23;19919;-61
2022/05/05 12:35:31;;;;;;;;;;;;;;;;;;6131527;23;19912;-61
2022/05/05 12:37:59;;;;;;;;;;;;;;;;;;6209553;22;19905;-61
2022/05/05 12:40:29;;;;;;;;;;;;;;;;;;6132261;23;20004;-61
2022/05/05 12:42:54;;;;;;;;;;;;;;;;;;6142191;23;20384;-61
2022/05/05 12:45:24;;;;;;;;;;;;;;;;;;6245893;22;19934;-60
2022/05/05 12:47:49;;;;;;;;;;;;;;;;;;6140885;23;19917;-61
2022/05/05 12:50:15;;;;;;;;;;;;;;;;;;6141818;23;19920;-60
2022/05/05 13:00:56;;;;;;;;;;;;;;;;;;6141749;23;19932;-62
2022/05/05 13:03:23;;;;;;;;;;;;;;;;;;6132449;23;20620;-62
2022/05/05 13:05:49;;;;;;;;;;;;;;;;;;6141993;23;20164;-61
2022/05/05 13:08:14;;;;;;;;;;;;;;;;;;6244003;22;20317;-61
2022/05/05 13:10:40;;;;;;;;;;;;;;;;;;6234901;22;20038;-61
2022/05/05 13:13:05;;;;;;;;;;;;;;;;;;6244063;22;19992;-61
2022/05/05 13:15:31;;;;;;;;;;;;;;;;;;6132608;23;19916;-61
2022/05/05 13:17:56;;;;;;;;;;;;;;;;;;6141373;23;19909;-63
2022/05/05 13:20:22;;;;;;;;;;;;;;;;;;6234290;22;19920;-62
2022/05/05 13:22:47;;;;;;;;;;;;;;;;;;6140933;23;19908;-62
2022/05/05 13:25:23;;;;;;;;;;;;;;;;;;6141294;23;20347;-61
2022/05/05 13:27:48;;;;;;;;;;;;;;;;;;6132540;23;20564;-61
2022/05/05 13:30:14;;;;;;;;;;;;;;;;;;6142207;23;20100;-61
2022/05/05 13:32:39;;;;;;;;;;;;;;;;;;6234064;22;19923;-61
2022/05/05 13:35:04;;;;;;;;;;;;;;;;;;6245242;22;19943;-60
2022/05/05 13:37:30;;;;;;;;;;;;;;;;;;6141338;23;19913;-61
2022/05/05 13:39:56;;;;;;;;;;;;;;;;;;6235643;22;20376;-61
2022/05/05 13:42:21;;;;;;;;;;;;;;;;;;6234936;22;19924;-61
2022/05/05 13:44:49;;;;;;;;;;;;;;;;;;6245054;22;20018;-61
2022/05/05 13:47:19;;;;;;;;;;;;;;;;;;6209964;22;19924;-60
2022/05/05 13:52:32;;;;;;;;;;;;;;;;;;6235185;22;20377;-61
2022/05/05 13:55:01;;;;;;;;;;;;;;;;;;6210476;22;19909;-60
2022/05/05 13:57:27;;;;;;;;;;;;;;;;;;6211622;23;20370;-60
2022/05/05 13:59:53;;;;;;;;;;;;;;;;;;6236027;22;19915;-61
2022/05/05 14:02:20;;;;;;;;;;;;;;;;;;6236675;22;19917;-61
2022/05/05 14:04:46;;;;;;;;;;;;;;;;;;6142414;23;19916;-60
2022/05/05 14:07:14;;;;;;;;;;;;;;;;;;6233906;22;19919;-61
2022/05/05 14:12:23;;;;;;;;;;;;;;;;;;6143485;23;20622;-61
2022/05/05 14:14:49;;;;;;;;;;;;;;;;;;6143088;23;20006;-61
2022/05/05 14:17:15;;;;;;;;;;;;;;;;;;6143383;23;19912;-62
2022/05/05 14:19:41;;;;;;;;;;;;;;;;;;6234157;22;19940;-61
2022/05/05 14:22:06;;;;;;;;;;;;;;;;;;6142718;23;20427;-62
2022/05/05 14:24:31;;;;;;;;;;;;;;;;;;6245608;22;19909;-60
2022/05/05 14:27:01;;;;;;;;;;;;;;;;;;6140165;23;19924;-60
2022/05/05 14:29:26;;;;;;;;;;;;;;;;;;6234664;22;19909;-60
2022/05/05 14:31:52;;;;;;;;;;;;;;;;;;6234813;22;19916;-59
2022/05/05 14:34:17;;;;;;;;;;;;;;;;;;6142477;23;20596;-60
2022/05/05 14:36:50;;;;;;;;;;;;;;;;;;6142727;23;19912;-60
2022/05/05 14:39:15;;;;;;;;;;;;;;;;;;6245777;22;20309;-60
2022/05/05 14:41:43;;;;;;;;;;;;;;;;;;6143718;23;19912;-60
2022/05/05 14:44:11;;;;;;;;;;;;;;;;;;6210114;23;19912;-61
2022/05/05 14:46:36;;;;;;;;;;;;;;;;;;6246855;22;19934;-61
2022/05/05 14:49:01;;;;;;;;;;;;;;;;;;6142249;23;20713;-59
2022/05/05 14:51:28;;;;;;;;;;;;;;;;;;6142624;23;19908;-61
2022/05/05 14:53:57;;;;;;;;;;;;;;;;;;6235900;22;20631;-59
2022/05/05 14:56:23;;;;;;;;;;;;;;;;;;6235487;22;20076;-60
2022/05/05 14:58:51;;;;;;;;;;;;;;;;;;6140847;23;20288;-60
2022/05/05 15:01:21;;;;;;;;;;;;;;;;;;6236142;22;19979;-60
2022/05/05 15:07:03;;;;;;;;;;;;;;;;;;6143356;23;19966;-60
2022/05/05 15:09:29;;;;;;;;;;;;;;;;;;6132822;23;20603;-60
2022/05/05 15:11:58;;;;;;;;;;;;;;;;;;6143744;23;19908;-59
2022/05/05 15:14:26;;;;;;;;;;;;;;;;;;6209963;22;20601;-59
2022/05/05 15:16:52;;;;;;;;;;;;;;;;;;6210455;23;19923;-60
2022/05/05 15:19:23;;;;;;;;;;;;;;;;;;6234375;22;19915;-59
2022/05/05 15:22:01;;;;;;;;;;;;;;;;;;6141736;23;20165;-59
2022/05/05 15:24:26;;;;;;;;;;;;;;;;;;6143162;23;19960;-61
2022/05/05 15:26:56;;;;;;;;;;;;;;;;;;6140806;22;19977;-60
2022/05/05 15:29:28;;;;;;;;;;;;;;;;;;6141389;23;19912;-61
2022/05/05 15:31:53;;;;;;;;;;;;;;;;;;6234335;22;19913;-61
2022/05/05 15:34:19;;;;;;;;;;;;;;;;;;6233932;22;19915;-61
2022/05/05 15:36:44;;;;;;;;;;;;;;;;;;6235627;22;20287;-61
2022/05/05 15:39:12;;;;;;;;;;;;;;;;;;6233997;22;20630;-61
2022/05/05 15:41:40;;;;;;;;;;;;;;;;;;6210559;22;19924;-61
2022/05/05 15:44:11;;;;;;;;;;;;;;;;;;6234456;22;20800;-61
2022/05/05 15:46:36;;;;;;;;;;;;;;;;;;6234653;22;20447;-60
2022/05/05 15:49:03;;;;;;;;;;;;;;;;;;6209172;22;19913;-60
2022/05/05 15:51:34;;;;;;;;;;;;;;;;;;6142164;23;20244;-61
2022/05/05 15:54:04;;;;;;;;;;;;;;;;;;6209728;22;19958;-61
2022/05/05 15:56:32;;;;;;;;;;;;;;;;;;6142260;23;19917;-60
2022/05/05 15:58:57;;;;;;;;;;;;;;;;;;6210552;23;19913;-60
2022/05/05 16:01:23;;;;;;;;;;;;;;;;;;6245157;22;19924;-60
2022/05/05 16:03:50;;;;;;;;;;;;;;;;;;6139016;23;19999;-60
2022/05/05 16:06:16;;;;;;;;;;;;;;;;;;6246001;22;20016;-60
2022/05/05 16:08:41;;;;;;;;;;;;;;;;;;6233977;22;19912;-60
2022/05/05 16:11:06;;;;;;;;;;;;;;;;;;6235395;22;19916;-60
2022/05/05 16:13:33;;;;;;;;;;;;;;;;;;6209745;22;20602;-60
2022/05/05 16:15:58;;;;;;;;;;;;;;;;;;6234142;22;19916;-61
2022/05/05 16:18:26;;;;;;;;;;;;;;;;;;6234588;22;19908;-61
2022/05/05 16:20:54;;;;;;;;;;;;;;;;;;6235148;22;19920;-61
2022/05/05 16:23:19;;;;;;;;;;;;;;;;;;6244730;22;19935;-61
2022/05/05 16:31:15;;;;;;;;;;;;;;;;;;6234268;22;19917;-60
2022/05/05 16:33:41;;;;;;;;;;;;;;;;;;6132191;23;20398;-60
2022/05/05 16:36:09;;;;;;;;;;;;;;;;;;6242757;22;19912;-59
2022/05/05 16:38:35;;;;;;;;;;;;;;;;;;6142157;23;19953;-59
2022/05/05 16:41:15;;;;;;;;;;;;;;;;;;6132383;23;20311;-59
2022/05/05 16:46:56;;;;;;;;;;;;;;;;;;6142056;23;19947;-58
2022/05/05 16:49:22;;;;;;;;;;;;;;;;;;6234533;22;19980;-60
2022/05/05 16:51:51;;;;;;;;;;;;;;;;;;6234509;22;20341;-59
2022/05/05 16:54:16;;;;;;;;;;;;;;;;;;6235442;22;20393;-59
2022/05/05 16:56:41;;;;;;;;;;;;;;;;;;6142620;23;20015;-59
2022/05/05 16:59:08;;;;;;;;;;;;;;;;;;6208988;23;20000;-59
2022/05/05 17:01:33;;;;;;;;;;;;;;;;;;6233529;22;20317;-59
2022/05/05 17:03:59;;;;;;;;;;;;;;;;;;6233487;22;19940;-59
2022/05/05 17:06:25;;;;;;;;;;;;;;;;;;6234728;22;19990;-60
2022/05/05 17:08:52;;;;;;;;;;;;;;;;;;6234852;22;19965;-60
2022/05/05 17:11:20;;;;;;;;;;;;;;;;;;6141904;23;19990;-60
2022/05/05 17:13:45;;;;;;;;;;;;;;;;;;6142929;23;20360;-59
2022/05/05 17:16:13;;;;;;;;;;;;;;;;;;6236256;22;19969;-60
2022/05/05 17:18:39;;;;;;;;;;;;;;;;;;6141494;23;19908;-59
2022/05/05 17:21:04;;;;;;;;;;;;;;;;;;6208996;23;19916;-59
2022/05/05 17:23:30;;;;;;;;;;;;;;;;;;6233711;22;19912;-59
2022/05/05 17:25:55;;;;;;;;;;;;;;;;;;6234764;22;19982;-59
2022/05/05 17:28:20;;;;;;;;;;;;;;;;;;6210422;23;20348;-59
2022/05/05 17:30:48;;;;;;;;;;;;;;;;;;6244391;22;19908;-59
2022/05/05 17:33:13;;;;;;;;;;;;;;;;;;6212158;23;19920;-59
2022/05/05 17:35:38;;;;;;;;;;;;;;;;;;6143203;23;19922;-59
2022/05/05 17:38:06;;;;;;;;;;;;;;;;;;6245332;22;19940;-59
2022/05/05 17:40:31;;;;;;;;;;;;;;;;;;6246299;22;19952;-59
2022/05/05 17:42:59;;;;;;;;;;;;;;;;;;6235318;22;20696;-59
2022/05/05 17:50:57;;;;;;;;;;;;;;;;;;6143233;23;19913;-59
2022/05/05 17:53:24;;;;;;;;;;;;;;;;;;6235036;22;19924;-59
2022/05/05 17:55:50;;;;;;;;;;;;;;;;;;6142568;23;19913;-59
2022/05/05 17:58:16;;;;;;;;;;;;;;;;;;6133800;22;19912;-59
2022/05/05 18:00:41;;;;;;;;;;;;;;;;;;6142879;23;19924;-59
2022/05/05 18:03:06;;;;;;;;;;;;;;;;;;6246691;22;19927;-58
2022/05/05 18:05:32;;;;;;;;;;;;;;;;;;6142818;23;20015;-59
2022/05/05 18:08:00;;;;;;;;;;;;;;;;;;6236864;22;19927;-58
2022/05/05 18:10:26;;;;;;;;;;;;;;;;;;6133333;23;19986;-58
2022/05/05 18:12:57;;;;;;;;;;;;;;;;;;6245128;22;20385;-58
2022/05/05 18:15:23;;;;;;;;;;;;;;;;;;6236528;22;20344;-58